Time;durP1;ratioP1;P1;durP2;ratioP2;P2;SDS_P1;SDS_P2;PMS_P1;PMS_P2;Temp;Humidity;BMP_temperature;BMP_pressure;BME280_temperature;BME280_humidity;BME280_pressure;Samples;Min_cycle;Max_cycle;Signal;HPM_P1;HPM_P2
2021/12/28 00:00:00;;;;;;;;;;;;;;;20.52;54.98;98913.75;2094481;28;20782;-56
2021/12/28 00:01:10;;;;;;;;;;;;;;;20.53;55.08;98920.13;2089584;28;20262;-56
2021/12/28 00:02:11;;;;;;;;;;;;;;;20.52;54.92;98913.75;2088199;28;19908;-55
2021/12/28 00:03:11;;;;;;;;;;;;;;;20.53;55.02;98918.22;2091169;28;19922;-56
2021/12/28 00:04:12;;;;;;;;;;;;;;;20.53;55.15;98904.53;2087690;28;19919;-49
2021/12/28 00:05:13;;;;;;;;;;;;;;;20.52;55.02;98921.97;2088026;28;19909;-48
2021/12/28 00:06:14;;;;;;;;;;;;;;;20.52;55.11;98941.13;2087943;28;19920;-56
2021/12/28 00:07:15;;;;;;;;;;;;;;;20.53;55.17;98948.34;2087095;28;20275;-55
2021/12/28 00:08:16;;;;;;;;;;;;;;;20.50;54.95;98951.41;2090221;28;20338;-55
2021/12/28 00:09:17;;;;;;;;;;;;;;;20.52;54.99;98956.72;2079857;28;19993;-54
2021/12/28 00:10:18;;;;;;;;;;;;;;;20.52;54.99;98954.81;2078529;28;20011;-54
2021/12/28 00:11:18;;;;;;;;;;;;;;;20.52;55.09;98956.72;2087764;28;20053;-54
2021/12/28 00:12:19;;;;;;;;;;;;;;;20.51;54.91;98961.34;2090008;28;20245;-53
2021/12/28 00:13:19;;;;;;;;;;;;;;;20.51;55.00;98961.34;2092121;28;19908;-53
2021/12/28 00:14:22;;;;;;;;;;;;;;;20.51;55.10;98960.50;2091760;28;20314;-54
2021/12/28 00:16:32;;;;;;;;;;;;;;;20.50;54.91;98981.53;2085794;28;19920;-54
2021/12/28 00:18:52;;;;;;;;;;;;;;;20.51;54.92;98987.88;2089442;28;20386;-53
2021/12/28 00:19:53;;;;;;;;;;;;;;;20.50;55.18;98984.28;2089056;28;19909;-53
2021/12/28 00:20:55;;;;;;;;;;;;;;;20.51;55.07;98983.25;2091374;28;19989;-53
2021/12/28 00:21:55;;;;;;;;;;;;;;;20.50;55.13;98981.53;2090192;28;19958;-55
2021/12/28 00:22:56;;;;;;;;;;;;;;;20.48;54.96;98980.91;2092255;28;19996;-55
2021/12/28 00:23:58;;;;;;;;;;;;;;;20.50;55.00;98969.75;2088867;28;19975;-55
2021/12/28 00:24:58;;;;;;;;;;;;;;;20.49;54.92;98962.56;2092576;28;20213;-56
2021/12/28 00:25:58;;;;;;;;;;;;;;;20.48;54.97;98961.72;2091025;28;20051;-49
2021/12/28 00:26:59;;;;;;;;;;;;;;;20.49;54.92;98965.31;2091269;28;19924;-55
2021/12/28 00:27:59;;;;;;;;;;;;;;;20.47;55.04;98960.00;2091042;28;19947;-55
2021/12/28 00:28:59;;;;;;;;;;;;;;;20.47;54.96;98960.00;2093370;28;19969;-50
2021/12/28 00:30:01;;;;;;;;;;;;;;;20.46;55.16;98952.00;2089685;28;19912;-50
2021/12/28 00:31:02;;;;;;;;;;;;;;;20.47;54.91;98957.28;2098161;28;19920;-52
2021/12/28 00:32:02;;;;;;;;;;;;;;;20.47;55.11;98949.06;2092292;28;19915;-55
2021/12/28 00:33:05;;;;;;;;;;;;;;;20.46;55.14;98944.63;2091876;28;20891;-54
2021/12/28 00:34:05;;;;;;;;;;;;;;;20.46;54.98;98936.44;2081050;28;20014;-49
2021/12/28 00:35:06;;;;;;;;;;;;;;;20.46;55.11;98930.94;2083563;28;19909;-53
2021/12/28 00:36:06;;;;;;;;;;;;;;;20.47;55.08;98927.16;2088897;28;19916;-52
2021/12/28 00:37:06;;;;;;;;;;;;;;;20.46;54.90;98919.16;2083989;28;19916;-46
2021/12/28 00:38:08;;;;;;;;;;;;;;;20.46;54.88;98908.22;2082970;28;19908;-49
2021/12/28 00:39:08;;;;;;;;;;;;;;;20.45;55.02;98910.06;2089901;28;21594;-47
2021/12/28 00:40:09;;;;;;;;;;;;;;;20.45;54.98;98911.97;2091820;28;19962;-50
2021/12/28 00:41:09;;;;;;;;;;;;;;;20.45;55.13;98901.84;2074457;28;19988;-49
2021/12/28 00:42:10;;;;;;;;;;;;;;;20.44;55.04;98900.19;2079742;28;19916;-50
2021/12/28 00:43:10;;;;;;;;;;;;;;;20.44;55.09;98902.91;2093573;28;19916;-49
2021/12/28 00:44:11;;;;;;;;;;;;;;;20.44;54.90;98900.19;2091781;28;20072;-50
2021/12/28 00:45:12;;;;;;;;;;;;;;;20.44;54.95;98894.69;2092215;28;20155;-53
2021/12/28 00:46:12;;;;;;;;;;;;;;;20.44;55.05;98896.59;2093698;28;19928;-54
2021/12/28 00:47:13;;;;;;;;;;;;;;;20.43;54.94;98895.75;2090252;28;20220;-54
2021/12/28 00:48:13;;;;;;;;;;;;;;;20.43;55.07;98894.88;2094493;28;19931;-48
2021/12/28 00:49:14;;;;;;;;;;;;;;;20.43;54.97;98901.22;2088179;28;20859;-52
2021/12/28 00:50:15;;;;;;;;;;;;;;;20.45;55.17;98907.34;2093207;28;19948;-47
2021/12/28 00:51:16;;;;;;;;;;;;;;;20.44;55.15;98905.66;2092967;28;19962;-47
2021/12/28 00:52:16;;;;;;;;;;;;;;;20.43;55.21;98906.69;2092206;28;19948;-49
2021/12/28 00:53:16;;;;;;;;;;;;;;;20.44;55.07;98905.66;2102859;28;20383;-52
2021/12/28 00:54:17;;;;;;;;;;;;;;;20.44;54.97;98911.13;2093705;28;20279;-51
2021/12/28 00:55:18;;;;;;;;;;;;;;;20.43;55.10;98909.44;2097250;28;20009;-48
2021/12/28 00:56:18;;;;;;;;;;;;;;;20.43;54.94;98903.09;2092382;28;19977;-50
2021/12/28 00:57:19;;;;;;;;;;;;;;;20.43;55.19;98903.97;2090898;28;19970;-49
2021/12/28 00:58:19;;;;;;;;;;;;;;;20.43;55.03;98903.09;2087355;28;19904;-48
2021/12/28 00:59:19;;;;;;;;;;;;;;;20.43;54.92;98914.91;2090351;28;19989;-49
2021/12/28 01:00:22;;;;;;;;;;;;;;;20.43;54.98;98925.84;2091612;28;19999;-49
2021/12/28 01:01:22;;;;;;;;;;;;;;;20.42;54.94;98920.56;2092015;28;20007;-51
2021/12/28 01:02:22;;;;;;;;;;;;;;;20.43;54.99;98934.06;2092948;28;19995;-52
2021/12/28 01:03:22;;;;;;;;;;;;;;;20.42;54.99;98926.88;2093067;28;19989;-51
2021/12/28 01:04:24;;;;;;;;;;;;;;;20.42;54.93;98924.16;2092066;28;19938;-49
2021/12/28 01:05:25;;;;;;;;;;;;;;;20.41;54.94;98919.72;2091489;28;19916;-51
2021/12/28 01:06:25;;;;;;;;;;;;;;;20.42;55.07;98924.16;2093040;28;19916;-49
2021/12/28 01:07:25;;;;;;;;;;;;;;;20.42;54.96;98932.34;2089533;28;20058;-47
2021/12/28 01:08:27;;;;;;;;;;;;;;;20.42;54.87;98935.09;2086748;28;19976;-50
2021/12/28 01:09:30;;;;;;;;;;;;;;;20.42;55.07;98946.03;2087167;28;19978;-52
2021/12/28 01:10:33;;;;;;;;;;;;;;;20.42;54.98;98939.72;2093307;28;19920;-50
2021/12/28 01:11:33;;;;;;;;;;;;;;;20.42;55.21;98940.56;2093124;28;19965;-48
2021/12/28 01:12:34;;;;;;;;;;;;;;;20.42;55.03;98946.03;2092442;28;20043;-48
2021/12/28 01:13:34;;;;;;;;;;;;;;;20.42;55.16;98935.09;2100481;28;19974;-50
2021/12/28 01:14:35;;;;;;;;;;;;;;;20.41;54.85;98933.41;2092211;28;19974;-48
2021/12/28 01:15:36;;;;;;;;;;;;;;;20.41;54.93;98936.13;2097955;28;20244;-48
2021/12/28 01:16:36;;;;;;;;;;;;;;;20.41;54.91;98933.41;2091219;28;19930;-50
2021/12/28 01:17:37;;;;;;;;;;;;;;;20.42;55.06;98939.72;2089006;28;20294;-47
2021/12/28 01:18:38;;;;;;;;;;;;;;;20.41;54.91;98932.56;2099940;28;20613;-48
2021/12/28 01:19:38;;;;;;;;;;;;;;;20.41;55.21;98944.34;2092871;28;20349;-48
2021/12/28 01:20:39;;;;;;;;;;;;;;;20.41;54.95;98936.13;2087030;28;20015;-50
2021/12/28 01:21:40;;;;;;;;;;;;;;;20.41;55.06;98932.56;2095208;28;19935;-48
2021/12/28 01:22:40;;;;;;;;;;;;;;;20.40;55.20;98931.69;2089192;28;20471;-49
2021/12/28 01:23:41;;;;;;;;;;;;;;;20.40;55.01;98926.22;2088455;28;19913;-48
2021/12/28 01:24:41;;;;;;;;;;;;;;;20.39;54.92;98927.25;2086713;28;20218;-49
2021/12/28 01:25:41;;;;;;;;;;;;;;;20.40;55.20;98926.22;2091761;28;19936;-52
2021/12/28 01:26:42;;;;;;;;;;;;;;;20.40;54.93;98931.69;2095382;28;20229;-50
2021/12/28 01:27:43;;;;;;;;;;;;;;;20.41;54.93;98922.44;2097912;28;19908;-51
2021/12/28 01:28:43;;;;;;;;;;;;;;;20.40;55.13;98926.22;2093337;28;20278;-51
2021/12/28 01:29:43;;;;;;;;;;;;;;;20.41;54.88;98932.56;2091847;28;19907;-49
2021/12/28 01:30:44;;;;;;;;;;;;;;;20.41;55.10;98949.81;2093093;28;20350;-49
2021/12/28 01:31:44;;;;;;;;;;;;;;;20.40;54.94;98942.63;2091824;28;20325;-49
2021/12/28 01:32:44;;;;;;;;;;;;;;;20.41;55.00;98946.25;2091652;28;19912;-50
2021/12/28 01:33:45;;;;;;;;;;;;;;;20.40;54.94;98950.84;2092629;28;19912;-49
2021/12/28 01:34:45;;;;;;;;;;;;;;;20.40;54.91;98953.59;2090853;28;19955;-51
2021/12/28 01:35:45;;;;;;;;;;;;;;;20.40;55.08;98953.59;2095079;28;20101;-50
2021/12/28 01:36:46;;;;;;;;;;;;;;;20.41;54.94;98944.34;2092738;28;19946;-50
2021/12/28 01:37:46;;;;;;;;;;;;;;;20.40;54.88;98964.53;2091939;28;19908;-48
2021/12/28 01:38:47;;;;;;;;;;;;;;;20.41;54.86;98968.13;2089727;28;20352;-51
2021/12/28 01:39:47;;;;;;;;;;;;;;;20.41;55.01;98965.41;2088398;28;19920;-49
2021/12/28 01:40:48;;;;;;;;;;;;;;;20.39;55.09;98946.41;2093010;28;19981;-51
2021/12/28 01:41:48;;;;;;;;;;;;;;;20.41;55.02;98948.97;2092314;28;20314;-49
2021/12/28 01:43:03;;;;;;;;;;;;;;;20.40;54.96;98950.00;2091220;28;19962;-49
2021/12/28 01:44:06;;;;;;;;;;;;;;;20.40;55.01;98950.84;2088109;28;20615;-52
2021/12/28 01:45:07;;;;;;;;;;;;;;;20.41;54.97;98955.31;2084230;28;20003;-50
2021/12/28 01:46:08;;;;;;;;;;;;;;;20.41;55.05;98955.31;2093057;28;19965;-50
2021/12/28 01:47:08;;;;;;;;;;;;;;;20.41;54.88;98949.81;2089658;28;19965;-49
2021/12/28 01:48:10;;;;;;;;;;;;;;;20.41;55.01;98948.97;2081619;28;19920;-48
2021/12/28 01:49:11;;;;;;;;;;;;;;;20.40;54.94;98945.38;2091141;28;19912;-48
2021/12/28 01:50:11;;;;;;;;;;;;;;;20.41;54.79;98949.81;2089629;28;20843;-50
2021/12/28 01:51:13;;;;;;;;;;;;;;;20.41;54.70;98955.31;2095063;28;20158;-50
2021/12/28 01:52:13;;;;;;;;;;;;;;;20.42;54.80;98958.88;2088736;28;19924;-47
2021/12/28 01:53:14;;;;;;;;;;;;;;;20.40;54.93;98970.00;2099535;28;19973;-48
2021/12/28 01:54:14;;;;;;;;;;;;;;;20.42;54.76;98972.56;2090727;28;19981;-49
2021/12/28 01:55:14;;;;;;;;;;;;;;;20.42;54.86;98975.31;2091472;28;19969;-50
2021/12/28 01:56:17;;;;;;;;;;;;;;;20.43;54.99;98986.06;2091998;28;19912;-50
2021/12/28 01:57:19;;;;;;;;;;;;;;;20.42;54.91;98987.09;2091352;28;19919;-49
2021/12/28 01:58:19;;;;;;;;;;;;;;;20.41;54.79;98977.19;2097650;28;20022;-53
2021/12/28 01:59:20;;;;;;;;;;;;;;;20.42;54.87;98962.47;2097567;28;19994;-50
2021/12/28 02:00:21;;;;;;;;;;;;;;;20.42;54.78;98973.41;2091476;28;19916;-49
2021/12/28 02:01:21;;;;;;;;;;;;;;;20.41;55.00;98974.47;2089360;28;19924;-48
2021/12/28 02:02:22;;;;;;;;;;;;;;;20.43;54.80;98979.72;2088854;28;20015;-47
2021/12/28 02:03:23;;;;;;;;;;;;;;;20.42;54.91;98976.16;2091560;28;19908;-48
2021/12/28 02:04:25;;;;;;;;;;;;;;;20.43;54.71;98985.19;2087644;28;19924;-48
2021/12/28 02:05:26;;;;;;;;;;;;;;;20.43;54.70;98991.56;2093672;28;19947;-51
2021/12/28 02:06:27;;;;;;;;;;;;;;;20.43;54.66;98985.19;2085722;28;19931;-48
2021/12/28 02:07:27;;;;;;;;;;;;;;;20.43;54.68;98979.72;2092372;28;19931;-51
2021/12/28 02:08:27;;;;;;;;;;;;;;;20.43;54.77;98980.59;2092728;28;20194;-52
2021/12/28 02:09:28;;;;;;;;;;;;;;;20.44;54.85;98975.97;2094279;28;20755;-48
2021/12/28 02:10:28;;;;;;;;;;;;;;;20.43;54.59;98958.72;2094648;28;20006;-47
2021/12/28 02:11:28;;;;;;;;;;;;;;;20.44;54.63;98959.53;2092726;28;20021;-49
2021/12/28 02:12:29;;;;;;;;;;;;;;;20.44;54.63;98970.50;2090417;28;19974;-48
2021/12/28 02:13:30;;;;;;;;;;;;;;;20.45;54.61;98973.03;2093377;28;19911;-49
2021/12/28 02:14:30;;;;;;;;;;;;;;;20.44;54.68;98982.28;2089598;28;19967;-49
2021/12/28 02:15:31;;;;;;;;;;;;;;;20.45;54.67;98989.44;2093053;28;19974;-48
2021/12/28 02:16:32;;;;;;;;;;;;;;;20.45;54.82;98988.59;2086504;28;20036;-49
2021/12/28 02:17:34;;;;;;;;;;;;;;;20.44;54.76;98987.75;2092793;28;19936;-49
2021/12/28 02:18:34;;;;;;;;;;;;;;;20.45;54.63;98994.09;2094066;28;19955;-49
2021/12/28 02:19:35;;;;;;;;;;;;;;;20.45;54.81;98999.56;2091518;28;19912;-49
2021/12/28 02:20:35;;;;;;;;;;;;;;;20.45;54.67;98996.81;2091768;28;19924;-49
2021/12/28 02:21:36;;;;;;;;;;;;;;;20.45;54.51;98997.66;2091603;28;19962;-51
2021/12/28 02:22:36;;;;;;;;;;;;;;;20.44;54.71;99009.66;2086276;28;20006;-50
2021/12/28 02:23:37;;;;;;;;;;;;;;;20.44;54.57;99006.09;2090361;28;19958;-51
2021/12/28 02:24:37;;;;;;;;;;;;;;;20.45;54.58;99000.41;2090175;28;19923;-52
2021/12/28 02:25:38;;;;;;;;;;;;;;;20.45;54.61;99003.13;2090588;28;20342;-48
2021/12/28 02:26:38;;;;;;;;;;;;;;;20.46;54.59;99015.81;2079918;28;20043;-46
2021/12/28 02:27:39;;;;;;;;;;;;;;;20.45;54.60;99022.31;2086244;28;19924;-48
2021/12/28 02:28:40;;;;;;;;;;;;;;;20.46;54.75;99024.03;2089599;28;19951;-46
2021/12/28 02:29:40;;;;;;;;;;;;;;;20.47;54.71;99035.81;2096131;28;19915;-49
2021/12/28 02:30:42;;;;;;;;;;;;;;;20.47;54.69;99028.44;2094285;28;19953;-47
2021/12/28 02:31:43;;;;;;;;;;;;;;;20.47;54.59;99036.66;2092782;28;20014;-48
2021/12/28 02:32:44;;;;;;;;;;;;;;;20.47;54.61;99036.66;2091169;28;19931;-49
2021/12/28 02:33:45;;;;;;;;;;;;;;;20.48;54.56;99037.50;2091737;28;20045;-47
2021/12/28 02:34:46;;;;;;;;;;;;;;;20.48;54.47;99042.97;2092109;28;20501;-48
2021/12/28 02:35:48;;;;;;;;;;;;;;;20.47;54.47;99042.13;2092121;28;19912;-50
2021/12/28 02:36:48;;;;;;;;;;;;;;;20.49;54.60;99044.69;2091770;28;19912;-49
2021/12/28 02:37:49;;;;;;;;;;;;;;;20.49;54.46;99045.53;2092864;28;20228;-48
2021/12/28 02:38:49;;;;;;;;;;;;;;;20.49;54.56;99044.69;2092967;28;19952;-51
2021/12/28 02:39:50;;;;;;;;;;;;;;;20.49;54.55;99050.19;2090304;28;19957;-53
2021/12/28 02:40:51;;;;;;;;;;;;;;;20.49;54.52;99044.69;2085110;28;19912;-46
2021/12/28 02:41:51;;;;;;;;;;;;;;;20.49;54.48;99053.75;2087161;28;19908;-51
2021/12/28 02:42:51;;;;;;;;;;;;;;;20.50;54.42;99052.72;2084106;28;19913;-52
2021/12/28 02:43:57;;;;;;;;;;;;;;;20.50;54.55;99052.72;2083062;28;19913;-49
2021/12/28 02:45:00;;;;;;;;;;;;;;;20.50;54.31;99063.66;2082632;28;19913;-51
2021/12/28 02:46:02;;;;;;;;;;;;;;;20.50;54.60;99051.88;2085008;28;19917;-50
2021/12/28 02:47:03;;;;;;;;;;;;;;;20.51;54.40;99054.44;2088983;28;19908;-52
2021/12/28 02:48:04;;;;;;;;;;;;;;;20.51;54.43;99043.47;2092370;28;19956;-52
2021/12/28 02:49:04;;;;;;;;;;;;;;;20.51;54.61;99046.22;2093930;28;20288;-52
2021/12/28 02:50:07;;;;;;;;;;;;;;;20.51;54.46;99042.63;2093910;28;19912;-49
2021/12/28 02:51:10;;;;;;;;;;;;;;;20.50;54.58;99030.81;2094147;28;19960;-52
2021/12/28 02:52:10;;;;;;;;;;;;;;;20.51;54.26;99038.00;2080937;28;19936;-50
2021/12/28 02:53:11;;;;;;;;;;;;;;;20.52;54.46;99044.31;2097126;28;19914;-51
2021/12/28 02:54:11;;;;;;;;;;;;;;;20.51;54.44;99032.53;2091355;28;19915;-51
2021/12/28 02:55:14;;;;;;;;;;;;;;;20.52;54.24;99039.69;2092458;28;19913;-52
2021/12/28 02:56:16;;;;;;;;;;;;;;;20.53;54.48;99041.41;2094374;28;19924;-52
2021/12/28 02:57:16;;;;;;;;;;;;;;;20.54;54.25;99042.25;2092521;28;20432;-48
2021/12/28 02:58:28;;;;;;;;;;;;;;;20.56;54.21;99042.97;2087130;28;20168;-46
2021/12/28 02:59:29;;;;;;;;;;;;;;;20.47;54.50;99041.28;2083837;28;19969;-46
2021/12/28 03:00:41;;;;;;;;;;;;;;;20.37;54.45;99041.53;2085179;28;20042;-46
2021/12/28 03:01:42;;;;;;;;;;;;;;;20.25;54.75;99037.53;2087603;28;19993;-47
2021/12/28 03:02:42;;;;;;;;;;;;;;;20.19;54.86;99043.75;2095162;28;19920;-46
2021/12/28 03:03:43;;;;;;;;;;;;;;;20.15;55.04;99047.88;2093931;28;19907;-48
2021/12/28 03:04:44;;;;;;;;;;;;;;;20.10;55.03;99041.06;2092584;28;19927;-46
2021/12/28 03:05:46;;;;;;;;;;;;;;;20.06;55.27;99050.69;2089161;28;20015;-47
2021/12/28 03:06:46;;;;;;;;;;;;;;;20.05;55.29;99059.91;2090681;28;20713;-47
2021/12/28 03:07:46;;;;;;;;;;;;;;;20.04;55.31;99058.22;2087073;28;20301;-47
2021/12/28 03:08:48;;;;;;;;;;;;;;;20.03;55.25;99053.75;2080686;28;20102;-46
2021/12/28 03:09:49;;;;;;;;;;;;;;;20.03;55.28;99061.97;2086124;28;19999;-46
2021/12/28 03:10:49;;;;;;;;;;;;;;;20.01;55.45;99064.03;2099454;28;20337;-46
2021/12/28 03:11:50;;;;;;;;;;;;;;;20.03;55.36;99063.84;2097441;28;20354;-46
2021/12/28 03:12:50;;;;;;;;;;;;;;;20.02;55.44;99064.91;2095675;28;20322;-47
2021/12/28 03:13:52;;;;;;;;;;;;;;;20.03;55.31;99066.59;2092554;28;20015;-46
2021/12/28 03:14:52;;;;;;;;;;;;;;;20.03;55.35;99067.44;2089258;28;20439;-46
2021/12/28 03:15:53;;;;;;;;;;;;;;;20.03;55.42;99072.91;2095631;28;19920;-47
2021/12/28 03:16:53;;;;;;;;;;;;;;;20.04;55.42;99071.88;2091205;28;19908;-46
2021/12/28 03:17:53;;;;;;;;;;;;;;;20.05;55.31;99070.84;2099259;28;19920;-46
2021/12/28 03:18:54;;;;;;;;;;;;;;;20.05;55.49;99070.84;2092304;28;19969;-47
2021/12/28 03:19:54;;;;;;;;;;;;;;;20.06;55.18;99075.31;2093365;28;19920;-47
2021/12/28 03:20:55;;;;;;;;;;;;;;;20.08;55.21;99081.41;2093198;28;19907;-47
2021/12/28 03:21:57;;;;;;;;;;;;;;;20.08;55.30;99078.69;2091583;28;20238;-46
2021/12/28 03:22:57;;;;;;;;;;;;;;;20.09;55.29;99072.19;2084918;28;20002;-47
2021/12/28 03:23:58;;;;;;;;;;;;;;;20.10;55.29;99079.34;2086789;28;19920;-46
2021/12/28 03:24:58;;;;;;;;;;;;;;;20.12;55.18;99077.28;2094858;28;19920;-46
2021/12/28 03:25:59;;;;;;;;;;;;;;;20.13;55.09;99073.50;2092849;28;19916;-46
2021/12/28 03:26:59;;;;;;;;;;;;;;;20.15;55.19;99089.75;2092073;28;19912;-46
2021/12/28 03:28:02;;;;;;;;;;;;;;;20.17;55.09;99084.97;2094214;28;20016;-46
2021/12/28 03:29:03;;;;;;;;;;;;;;;20.19;54.94;99084.78;2090801;28;20312;-49
2021/12/28 03:30:05;;;;;;;;;;;;;;;20.21;54.99;99085.44;2093721;28;19920;-46
2021/12/28 03:31:07;;;;;;;;;;;;;;;20.22;54.73;99077.06;2095287;28;19955;-47
2021/12/28 03:32:08;;;;;;;;;;;;;;;20.22;54.96;99071.59;2098566;28;19943;-47
2021/12/28 03:33:08;;;;;;;;;;;;;;;20.24;54.84;99082.38;2096016;28;19916;-46
2021/12/28 03:34:09;;;;;;;;;;;;;;;20.24;54.97;99080.47;2094114;28;20406;-47
2021/12/28 03:35:10;;;;;;;;;;;;;;;20.26;54.92;99083.00;2098450;28;19920;-46
2021/12/28 03:36:11;;;;;;;;;;;;;;;20.27;54.74;99085.56;2093824;28;20285;-49
2021/12/28 03:37:12;;;;;;;;;;;;;;;20.30;54.65;99078.88;2090441;28;19990;-47
2021/12/28 03:38:12;;;;;;;;;;;;;;;20.31;54.65;99091.56;2093781;28;19919;-48
2021/12/28 03:39:12;;;;;;;;;;;;;;;20.31;54.69;99084.19;2093379;28;19916;-47
2021/12/28 03:40:14;;;;;;;;;;;;;;;20.33;54.46;99094.94;2093989;28;19959;-46
2021/12/28 03:41:16;;;;;;;;;;;;;;;20.34;54.70;99091.19;2095479;28;19980;-46
2021/12/28 03:42:17;;;;;;;;;;;;;;;20.35;54.43;99092.88;2091007;28;19978;-46
2021/12/28 03:43:17;;;;;;;;;;;;;;;20.37;54.43;99101.75;2094946;28;19915;-46
2021/12/28 03:44:17;;;;;;;;;;;;;;;20.38;54.46;99094.38;2095547;28;20159;-46
2021/12/28 03:45:18;;;;;;;;;;;;;;;20.38;54.49;99095.22;2092121;28;20447;-46
2021/12/28 03:46:19;;;;;;;;;;;;;;;20.38;54.63;99097.13;2094773;28;19947;-46
2021/12/28 03:47:20;;;;;;;;;;;;;;;20.39;54.38;99101.59;2095253;28;19912;-47
2021/12/28 03:48:20;;;;;;;;;;;;;;;20.39;54.32;99107.91;2097932;28;20214;-47
2021/12/28 03:49:20;;;;;;;;;;;;;;;20.40;54.37;99106.84;2089753;28;20742;-47
2021/12/28 03:50:22;;;;;;;;;;;;;;;20.42;54.65;99096.59;2093058;28;19959;-47
2021/12/28 03:51:23;;;;;;;;;;;;;;;20.43;54.37;99112.00;2086953;28;19908;-46
2021/12/28 03:52:23;;;;;;;;;;;;;;;20.43;54.35;99105.63;2089174;28;19919;-47
2021/12/28 03:53:23;;;;;;;;;;;;;;;20.44;54.44;99112.84;2096057;28;19947;-46
2021/12/28 03:54:24;;;;;;;;;;;;;;;20.42;54.26;99110.28;2092532;28;19990;-47
2021/12/28 03:55:25;;;;;;;;;;;;;;;20.44;54.47;99105.47;2094425;28;19920;-47
2021/12/28 03:56:25;;;;;;;;;;;;;;;20.45;54.39;99109.91;2091027;28;19916;-47
2021/12/28 03:57:25;;;;;;;;;;;;;;;20.46;54.13;99100.66;2091455;28;19912;-48
2021/12/28 03:58:26;;;;;;;;;;;;;;;20.46;54.39;99111.63;2095446;28;19926;-46
2021/12/28 03:59:26;;;;;;;;;;;;;;;20.45;54.26;99115.38;2093151;28;19915;-46
2021/12/28 04:00:29;;;;;;;;;;;;;;;20.48;54.30;99108.69;2092817;28;19916;-46
2021/12/28 04:01:29;;;;;;;;;;;;;;;20.47;54.17;99113.31;2097498;28;19916;-48
2021/12/28 04:02:30;;;;;;;;;;;;;;;20.48;54.33;99115.03;2090541;28;20336;-49
2021/12/28 04:03:31;;;;;;;;;;;;;;;20.46;54.09;99117.09;2093370;28;19916;-46
2021/12/28 04:04:31;;;;;;;;;;;;;;;20.48;54.31;99120.50;2093664;28;19928;-47
2021/12/28 04:05:31;;;;;;;;;;;;;;;20.48;54.08;99117.78;2098214;28;19916;-47
2021/12/28 04:06:32;;;;;;;;;;;;;;;20.47;54.25;99121.53;2092220;28;19923;-46
2021/12/28 04:07:32;;;;;;;;;;;;;;;20.49;54.33;99127.66;2094987;28;19989;-46
2021/12/28 04:08:33;;;;;;;;;;;;;;;20.51;54.33;99127.50;2092035;28;20331;-46
2021/12/28 04:11:00;;;;;;;;;;;;;;;20.50;54.03;99123.88;2088146;28;19997;-46
2021/12/28 04:12:01;;;;;;;;;;;;;;;20.51;54.19;99124.75;2085596;28;20058;-47
2021/12/28 04:13:01;;;;;;;;;;;;;;;20.49;54.33;99127.66;2096358;28;19924;-46
2021/12/28 04:14:03;;;;;;;;;;;;;;;20.48;54.04;99128.72;2087693;28;19975;-46
2021/12/28 04:15:04;;;;;;;;;;;;;;;20.50;54.11;99129.34;2013793;28;1897942;-46
2021/12/28 04:16:05;;;;;;;;;;;;;;;20.50;54.32;99134.00;2091008;28;19931;-47
2021/12/28 04:17:05;;;;;;;;;;;;;;;20.49;54.21;99133.16;2089592;28;20235;-46
2021/12/28 04:18:06;;;;;;;;;;;;;;;20.49;54.13;99138.63;2089595;28;20682;-46
2021/12/28 04:19:06;;;;;;;;;;;;;;;20.49;54.40;99141.34;2093648;28;20871;-47
2021/12/28 04:20:13;;;;;;;;;;;;;;;20.48;54.24;99142.41;2089024;28;19974;-46
2021/12/28 04:21:14;;;;;;;;;;;;;;;20.48;54.29;99141.53;2092717;28;19935;-46
2021/12/28 04:22:15;;;;;;;;;;;;;;;20.48;54.27;99150.63;2098266;28;20369;-47
2021/12/28 04:23:15;;;;;;;;;;;;;;;20.48;54.20;99147.88;2087813;28;19909;-46
2021/12/28 04:24:16;;;;;;;;;;;;;;;20.48;54.58;99145.13;2092928;28;20354;-46
2021/12/28 04:25:17;;;;;;;;;;;;;;;20.48;54.28;99142.41;2092663;28;19942;-46
2021/12/28 04:26:19;;;;;;;;;;;;;;;20.47;54.23;99140.69;2091300;28;19947;-47
2021/12/28 04:27:19;;;;;;;;;;;;;;;20.47;54.29;99151.63;2093978;28;20006;-48
2021/12/28 04:28:19;;;;;;;;;;;;;;;20.48;54.36;99149.75;2102144;28;19915;-46
2021/12/28 04:29:19;;;;;;;;;;;;;;;20.47;54.30;99154.38;2094115;28;19916;-46
2021/12/28 04:30:20;;;;;;;;;;;;;;;20.48;54.47;99149.75;2094289;28;21314;-47
2021/12/28 04:31:20;;;;;;;;;;;;;;;20.47;54.49;99159.84;2087128;28;20049;-49
2021/12/28 04:32:20;;;;;;;;;;;;;;;20.46;54.29;99149.94;2093559;28;19982;-47
2021/12/28 04:33:21;;;;;;;;;;;;;;;20.45;54.44;99147.38;2087654;28;20015;-47
2021/12/28 04:34:21;;;;;;;;;;;;;;;20.46;54.39;99160.88;2094343;28;20284;-46
2021/12/28 04:35:22;;;;;;;;;;;;;;;20.45;54.32;99158.31;2087276;28;19924;-47
2021/12/28 04:36:22;;;;;;;;;;;;;;;20.45;54.50;99158.31;2091571;28;19955;-46
2021/12/28 04:37:22;;;;;;;;;;;;;;;20.44;54.31;99152.00;2093579;28;19931;-46
2021/12/28 04:38:23;;;;;;;;;;;;;;;20.44;54.35;99154.75;2094207;28;19952;-46
2021/12/28 04:39:23;;;;;;;;;;;;;;;20.45;54.50;99159.16;2091455;28;19923;-46
2021/12/28 04:40:23;;;;;;;;;;;;;;;20.44;54.46;99162.94;2091371;28;19920;-46
2021/12/28 04:41:24;;;;;;;;;;;;;;;20.44;54.56;99157.47;2092925;28;19924;-49
2021/12/28 04:42:26;;;;;;;;;;;;;;;20.43;54.34;99166.72;2093279;28;19994;-46
2021/12/28 04:43:27;;;;;;;;;;;;;;;20.42;54.49;99165.00;2085463;28;19917;-46
2021/12/28 04:44:27;;;;;;;;;;;;;;;20.42;54.26;99166.91;2082339;28;20330;-46
2021/12/28 04:45:27;;;;;;;;;;;;;;;20.43;54.45;99174.06;2099206;28;20032;-46
2021/12/28 04:46:28;;;;;;;;;;;;;;;20.42;54.65;99173.22;2097768;28;19961;-46
2021/12/28 04:47:29;;;;;;;;;;;;;;;20.42;54.61;99175.13;2094781;28;20398;-46
2021/12/28 04:48:29;;;;;;;;;;;;;;;20.42;54.59;99175.13;2095958;28;20322;-47
2021/12/28 04:49:29;;;;;;;;;;;;;;;20.41;54.39;99179.75;2090412;28;19923;-46
2021/12/28 04:50:37;;;;;;;;;;;;;;;20.41;54.61;99185.22;2095398;28;19965;-46
2021/12/28 04:51:37;;;;;;;;;;;;;;;20.41;54.42;99185.22;2086835;28;19935;-46
2021/12/28 04:52:38;;;;;;;;;;;;;;;20.42;54.36;99186.91;2086413;28;19912;-46
2021/12/28 04:53:39;;;;;;;;;;;;;;;20.42;54.60;99186.06;2077543;28;20322;-49
2021/12/28 04:54:39;;;;;;;;;;;;;;;20.40;54.36;99186.22;2085138;28;19916;-46
2021/12/28 04:55:41;;;;;;;;;;;;;;;20.40;54.36;99186.22;2091244;28;20215;-47
2021/12/28 04:56:41;;;;;;;;;;;;;;;20.40;54.33;99186.22;2094875;28;19941;-47
2021/12/28 04:57:42;;;;;;;;;;;;;;;20.41;54.65;99184.38;2087363;28;19989;-48
2021/12/28 04:58:42;;;;;;;;;;;;;;;20.40;54.70;99183.50;2092368;28;20294;-50
2021/12/28 04:59:43;;;;;;;;;;;;;;;20.39;54.67;99181.81;2094065;28;19908;-46
2021/12/28 05:00:44;;;;;;;;;;;;;;;20.39;54.71;99181.81;2093467;28;19912;-46
2021/12/28 05:01:44;;;;;;;;;;;;;;;20.40;54.45;99180.75;2094387;28;20028;-46
2021/12/28 05:02:45;;;;;;;;;;;;;;;20.40;54.54;99182.66;2088381;28;19923;-46
2021/12/28 05:03:46;;;;;;;;;;;;;;;20.40;54.48;99182.66;2093907;28;19965;-46
2021/12/28 05:04:46;;;;;;;;;;;;;;;20.39;54.48;99184.53;2086361;28;20146;-47
2021/12/28 05:05:50;;;;;;;;;;;;;;;20.39;54.61;99198.22;2098402;28;20372;-46
2021/12/28 05:06:51;;;;;;;;;;;;;;;20.39;54.60;99198.22;2095203;28;19922;-49
2021/12/28 05:07:52;;;;;;;;;;;;;;;20.39;54.67;99200.97;2087609;28;19941;-49
2021/12/28 05:08:52;;;;;;;;;;;;;;;20.38;54.40;99204.72;2094349;28;20269;-49
2021/12/28 05:09:57;;;;;;;;;;;;;;;20.39;54.58;99211.91;2098102;28;19920;-46
2021/12/28 05:10:58;;;;;;;;;;;;;;;20.38;54.47;99210.19;2099995;28;20425;-46
2021/12/28 05:11:58;;;;;;;;;;;;;;;20.38;54.54;99201.97;2088577;28;19927;-47
2021/12/28 05:12:58;;;;;;;;;;;;;;;20.38;54.70;99212.09;2095226;28;19916;-47
2021/12/28 05:13:59;;;;;;;;;;;;;;;20.38;54.58;99209.34;2092307;28;20794;-46
2021/12/28 05:15:00;;;;;;;;;;;;;;;20.37;54.63;99210.38;2093321;28;19923;-46
2021/12/28 05:16:00;;;;;;;;;;;;;;;20.37;54.78;99211.22;2090434;28;20287;-47
2021/12/28 05:17:01;;;;;;;;;;;;;;;20.38;54.58;99212.09;2095157;28;19908;-47
2021/12/28 05:18:02;;;;;;;;;;;;;;;20.38;54.72;99223.88;2091867;28;19912;-46
2021/12/28 05:19:03;;;;;;;;;;;;;;;20.37;54.65;99218.59;2097597;28;20761;-46
2021/12/28 05:20:05;;;;;;;;;;;;;;;20.37;54.56;99218.59;2091280;28;19965;-46
2021/12/28 05:21:05;;;;;;;;;;;;;;;20.36;54.81;99217.75;2091826;28;20033;-47